createdAt,value
2023-05-18T06:50:03.564Z,17.68
2023-05-18T06:50:46.981Z,17.30
2023-05-18T06:51:46.993Z,17.50
2023-05-18T06:58:40.261Z,18.13
2023-05-18T06:59:31.009Z,17.79
2023-05-18T07:00:30.998Z,17.35
2023-05-18T07:01:31.115Z,16.86
2023-05-18T07:03:57.124Z,17.17
2023-05-18T07:04:57.101Z,17.35
2023-05-18T07:05:57.681Z,17.05
2023-05-18T07:06:57.174Z,17.44
2023-05-18T07:07:57.184Z,18.30
2023-05-18T07:08:57.210Z,18.24
2023-05-18T07:09:57.309Z,17.98
2023-05-18T07:10:57.273Z,17.97
2023-05-18T07:11:57.302Z,18.51
2023-05-18T07:12:57.325Z,18.49
2023-05-18T07:13:57.311Z,18.82
2023-05-18T07:14:57.330Z,18.76
2023-05-18T07:15:57.393Z,18.82
2023-05-18T07:16:57.435Z,19.00
2023-05-18T07:17:57.579Z,19.07
2023-05-18T07:19:00.935Z,18.89
2023-05-18T07:19:57.659Z,19.08
2023-05-18T07:20:57.638Z,19.35
2023-05-18T07:21:57.726Z,19.37
2023-05-18T07:22:57.771Z,19.22
2023-05-18T07:23:57.734Z,18.97
2023-05-18T07:24:57.767Z,18.96
2023-05-18T07:25:57.827Z,19.09
2023-05-18T07:27:00.044Z,18.74
2023-05-18T07:27:57.868Z,18.49
2023-05-18T07:28:57.860Z,18.00
2023-05-18T07:29:57.903Z,17.69
2023-05-18T07:30:58.025Z,18.63
2023-05-18T07:31:58.288Z,19.37
2023-05-18T07:32:58.145Z,19.85
2023-05-18T07:33:58.155Z,19.85
2023-05-18T07:34:58.108Z,19.62
2023-05-18T07:35:59.357Z,19.38
2023-05-18T07:36:58.186Z,19.67
2023-05-18T07:37:58.203Z,19.34
2023-05-18T07:38:58.253Z,19.26
2023-05-18T07:39:58.298Z,19.07
2023-05-18T07:40:58.374Z,18.89
2023-05-18T07:41:58.473Z,18.68
2023-05-18T07:42:58.511Z,18.23
2023-05-18T07:43:58.455Z,18.00
2023-05-18T07:44:58.520Z,18.11
2023-05-18T07:46:13.270Z,18.68
2023-05-18T07:46:58.567Z,18.55
2023-05-18T07:47:59.563Z,19.23
2023-05-18T07:48:58.625Z,19.96
2023-05-18T07:49:59.191Z,20.34
2023-05-18T07:50:58.697Z,19.99
2023-05-18T07:51:58.746Z,19.44
2023-05-18T07:52:58.784Z,19.15
2023-05-18T07:53:58.846Z,19.75
2023-05-18T07:54:58.808Z,20.10
2023-05-18T07:55:59.050Z,20.22
2023-05-18T07:57:00.650Z,20.66
2023-05-18T07:57:59.056Z,20.50
2023-05-18T07:58:59.023Z,19.85
2023-05-18T07:59:59.117Z,19.85
2023-05-18T08:00:59.087Z,19.89
2023-05-18T08:01:59.199Z,20.34
2023-05-18T08:03:01.831Z,20.39
2023-05-18T08:03:59.367Z,19.52
2023-05-18T08:05:01.882Z,19.04
2023-05-18T08:06:05.877Z,19.34
2023-05-18T08:07:02.762Z,19.78
2023-05-18T08:08:05.842Z,20.50
2023-05-18T08:09:05.552Z,21.32
2023-05-18T08:10:10.351Z,21.56
2023-05-18T08:11:05.858Z,20.55
2023-05-18T08:11:59.452Z,19.23
2023-05-18T08:12:59.392Z,18.57
2023-05-18T08:13:59.463Z,19.12
2023-05-18T08:14:59.512Z,20.03
2023-05-18T08:16:11.144Z,19.78
2023-05-18T08:16:59.668Z,19.45
2023-05-18T08:17:59.677Z,19.93
2023-05-18T08:18:59.797Z,20.78
2023-05-18T08:19:59.752Z,21.19
2023-05-18T08:20:59.658Z,21.03
2023-05-18T08:21:59.661Z,20.39
2023-05-18T08:22:59.701Z,20.96
2023-05-18T08:23:59.761Z,20.67
2023-05-18T08:24:59.942Z,21.26
2023-05-18T08:25:59.862Z,20.90
2023-05-18T08:26:59.879Z,20.15
2023-05-18T08:28:00.332Z,20.26
2023-05-18T08:28:59.885Z,20.24
2023-05-18T08:30:10.962Z,21.05
2023-05-18T08:31:04.786Z,20.85
2023-05-18T08:32:00.136Z,21.32
2023-05-18T08:33:00.177Z,20.49
2023-05-18T08:34:03.314Z,20.36
2023-05-18T08:35:00.048Z,20.22
2023-05-18T08:36:00.115Z,19.60
2023-05-18T08:37:00.172Z,20.58
2023-05-18T08:38:00.222Z,21.23
2023-05-18T08:39:00.353Z,21.62
2023-05-18T08:40:00.381Z,21.97
2023-05-18T08:41:00.386Z,21.38
2023-05-18T08:42:00.391Z,21.15
2023-05-18T08:43:00.363Z,21.22
2023-05-18T08:44:00.515Z,21.50
2023-05-18T08:45:00.410Z,22.08
2023-05-18T08:46:00.832Z,22.55
2023-05-18T08:47:00.525Z,22.41
2023-05-18T08:48:00.563Z,22.44
2023-05-18T08:49:00.629Z,21.38
2023-05-18T08:50:01.369Z,20.22
2023-05-18T08:51:00.545Z,19.12
2023-05-18T08:52:00.688Z,19.99
2023-05-18T08:53:00.673Z,20.78
2023-05-18T08:54:00.636Z,21.65
2023-05-18T08:55:00.719Z,21.19
2023-05-18T08:56:00.690Z,21.22
2023-05-18T08:57:01.789Z,20.58
2023-05-18T08:58:00.788Z,20.22
2023-05-18T08:59:00.750Z,20.27
2023-05-18T09:00:00.808Z,20.39
2023-05-18T09:01:01.711Z,20.88
2023-05-18T09:02:01.118Z,21.10
2023-05-18T09:03:01.966Z,21.47
2023-05-18T09:04:01.103Z,21.81
2023-05-18T09:05:01.311Z,21.92
2023-05-18T09:06:01.788Z,21.88
2023-05-18T09:07:01.078Z,21.62
2023-05-18T09:08:02.603Z,21.77
2023-05-18T09:09:01.101Z,22.34
2023-05-18T09:10:08.390Z,21.91
2023-05-18T09:11:01.208Z,21.83
2023-05-18T09:12:01.200Z,22.28
2023-05-18T09:13:01.331Z,22.65
2023-05-18T09:14:01.286Z,22.81
2023-05-18T09:15:01.328Z,22.86
2023-05-18T09:16:01.430Z,23.10
2023-05-18T09:17:01.482Z,22.88
2023-05-18T09:18:01.632Z,22.04
2023-05-18T09:19:01.628Z,21.99
2023-05-18T09:20:01.536Z,21.96
2023-05-18T09:21:05.839Z,21.68
2023-05-18T09:22:01.568Z,22.00
2023-05-18T09:23:01.585Z,21.48
2023-05-18T09:24:02.679Z,21.23
2023-05-18T09:25:01.678Z,21.29
2023-05-18T09:26:01.643Z,21.72
2023-05-18T09:27:14.267Z,22.33
2023-05-18T09:28:01.730Z,22.77
2023-05-18T09:29:01.698Z,22.86
2023-05-18T09:30:02.388Z,23.02
2023-05-18T09:31:01.688Z,22.67
2023-05-18T09:32:01.825Z,22.51
2023-05-18T09:33:01.829Z,22.56
2023-05-18T09:34:01.932Z,22.37
2023-05-18T09:35:01.872Z,22.21
2023-05-18T09:36:01.983Z,22.31
2023-05-18T09:37:01.989Z,21.58
2023-05-18T09:38:02.034Z,21.59
2023-05-18T09:39:02.069Z,21.69
2023-05-18T09:40:02.095Z,21.51
2023-05-18T09:41:02.069Z,21.56
2023-05-18T09:42:02.136Z,22.10
2023-05-18T09:43:02.132Z,21.07
2023-05-18T09:44:02.175Z,21.08
2023-05-18T09:45:02.246Z,21.48
2023-05-18T09:46:02.297Z,22.23
2023-05-18T09:47:02.396Z,22.53
2023-05-18T09:48:02.409Z,22.74
2023-05-18T09:49:02.384Z,22.71
2023-05-18T09:50:02.418Z,22.86
2023-05-18T09:51:02.459Z,22.31
2023-05-18T09:54:55.561Z,22.28
2023-05-18T09:55:54.656Z,21.97
2023-05-18T09:57:09.087Z,21.43
2023-05-18T09:57:54.569Z,20.71
2023-05-18T09:58:54.562Z,21.51
2023-05-18T09:59:54.566Z,21.50
2023-05-18T10:00:54.682Z,21.14
2023-05-18T10:01:54.596Z,20.80
2023-05-18T10:02:54.950Z,21.47
2023-05-18T10:03:54.773Z,21.05
2023-05-18T10:04:54.628Z,21.94
2023-05-18T10:05:54.693Z,21.81
2023-05-18T10:06:54.706Z,22.18
2023-05-18T10:07:54.801Z,21.37
2023-05-18T10:08:54.752Z,21.33
2023-05-18T10:09:54.754Z,20.77
2023-05-18T10:10:54.795Z,21.85
2023-05-18T10:11:54.796Z,21.38
2023-05-18T10:12:54.807Z,21.81
2023-05-18T10:13:54.856Z,22.55
2023-05-18T10:14:54.878Z,22.36
2023-05-18T10:15:54.882Z,22.23
2023-05-18T10:17:03.541Z,22.44
2023-05-18T10:17:55.030Z,22.47
2023-05-18T10:18:55.037Z,21.60
2023-05-18T10:19:54.957Z,20.12
2023-05-18T10:20:55.542Z,20.15
2023-05-18T10:21:55.063Z,19.97
2023-05-18T10:22:55.078Z,20.27
2023-05-18T10:23:55.085Z,21.07
2023-05-18T10:24:55.101Z,21.91
2023-05-18T10:25:55.130Z,22.33
2023-05-18T10:26:57.054Z,22.88
2023-05-18T10:27:55.195Z,22.23
2023-05-18T10:28:55.242Z,21.94
2023-05-18T10:29:55.252Z,21.32
2023-05-18T10:30:55.345Z,21.91
2023-05-18T10:31:55.287Z,21.22
2023-05-18T10:32:55.388Z,20.39
2023-05-18T10:33:55.388Z,21.05
2023-05-18T10:34:55.435Z,20.46
2023-05-18T10:35:55.477Z,20.02
2023-05-18T10:36:55.552Z,19.62
2023-05-18T10:37:55.526Z,19.66
2023-05-18T10:38:55.574Z,20.59
2023-05-18T10:39:55.574Z,20.95
2023-05-18T10:40:55.594Z,21.74
2023-05-18T10:41:57.270Z,22.61
2023-05-18T10:42:55.643Z,22.03
2023-05-18T10:43:55.648Z,22.08
2023-05-18T10:44:55.695Z,21.74
2023-05-18T10:45:55.776Z,21.28
2023-05-18T10:46:55.932Z,22.07
2023-05-18T10:47:55.880Z,22.76
2023-05-18T10:48:55.845Z,23.44
2023-05-18T10:49:55.867Z,23.59
2023-05-18T10:50:55.904Z,23.29
2023-05-18T10:51:55.940Z,22.89
2023-05-18T10:52:55.980Z,22.93
2023-05-18T10:53:56.439Z,23.06
2023-05-18T10:54:56.086Z,23.42
2023-05-18T10:55:56.102Z,23.76
2023-05-18T10:56:56.172Z,22.91
2023-05-18T10:57:56.189Z,22.89
2023-05-18T10:58:56.164Z,21.91
2023-05-18T10:59:56.222Z,22.18
2023-05-18T11:00:56.293Z,22.93
2023-05-18T11:01:56.373Z,22.99
2023-05-18T11:02:56.552Z,23.20
2023-05-18T11:03:56.429Z,23.59
2023-05-18T11:04:56.550Z,23.86
2023-05-18T11:05:56.541Z,23.25
2023-05-18T11:06:56.576Z,23.82
2023-05-18T11:07:56.683Z,24.48
2023-05-18T11:08:56.673Z,24.09
2023-05-18T11:09:56.660Z,23.06
2023-05-18T11:10:56.723Z,22.47
2023-05-18T11:11:56.766Z,21.33
2023-05-18T11:12:56.854Z,21.65
2023-05-18T11:13:56.856Z,21.17
2023-05-18T11:19:16.629Z,23.13
2023-05-18T11:20:16.575Z,23.33
2023-05-18T11:21:16.657Z,23.42
2023-05-18T11:22:16.653Z,23.56
2023-05-18T11:23:16.633Z,23.14
2023-05-18T11:24:16.659Z,23.14
2023-05-18T11:25:24.291Z,23.74
2023-05-18T11:26:16.780Z,24.25
2023-05-18T11:27:16.783Z,24.58
2023-05-18T11:28:16.835Z,24.48
2023-05-18T11:29:16.882Z,24.16
2023-05-18T11:30:16.932Z,22.23
2023-05-18T11:31:16.947Z,21.33
2023-05-18T11:32:26.261Z,21.43
2023-05-18T11:33:17.174Z,21.97
2023-05-18T11:34:17.064Z,22.15
2023-05-18T11:35:17.167Z,22.23
2023-05-18T11:36:17.160Z,22.38
2023-05-18T11:37:17.193Z,21.54
2023-05-18T11:38:17.193Z,21.41
2023-05-18T11:39:17.209Z,21.75
2023-05-18T11:40:17.268Z,21.35
2023-05-18T11:41:17.278Z,21.62
2023-05-18T11:42:17.276Z,21.72
2023-05-18T11:43:17.276Z,21.41
2023-05-18T11:44:17.359Z,21.51
2023-05-18T11:45:17.323Z,21.89
2023-05-18T11:46:17.331Z,22.41
2023-05-18T11:47:17.376Z,22.80
2023-05-18T11:48:17.507Z,23.21
2023-05-18T11:49:17.532Z,22.93
2023-05-18T11:50:17.461Z,22.25
2023-05-18T11:51:17.521Z,22.65
2023-05-18T11:52:17.555Z,23.16
2023-05-18T11:53:17.625Z,22.77
2023-05-18T11:54:17.605Z,22.91
2023-05-18T11:55:17.686Z,22.71
2023-05-18T11:56:17.726Z,22.80
2023-05-18T11:57:18.635Z,22.77
2023-05-18T11:58:17.834Z,22.81
2023-05-18T11:59:17.901Z,22.81
2023-05-18T12:00:17.973Z,23.13
2023-05-18T12:01:18.017Z,23.21
2023-05-18T12:02:18.140Z,23.32
2023-05-18T12:03:18.258Z,23.69
2023-05-18T12:04:18.244Z,23.56
2023-05-18T12:05:18.241Z,23.64
2023-05-18T12:06:18.281Z,24.03
2023-05-18T12:07:18.343Z,23.99
2023-05-18T12:08:18.405Z,23.45
2023-05-18T12:09:18.383Z,21.96
2023-05-18T12:10:18.433Z,21.84
2023-05-18T12:11:18.419Z,22.55
2023-05-18T12:12:18.405Z,23.33
2023-05-18T12:13:18.457Z,23.54
2023-05-18T12:14:18.463Z,23.59
2023-05-18T12:15:18.516Z,23.23
2023-05-18T12:16:18.577Z,22.91
2023-05-18T12:17:18.542Z,23.06
2023-05-18T12:18:19.428Z,22.51
2023-05-18T12:19:18.718Z,21.92
2023-05-18T12:20:20.393Z,21.44
2023-05-18T12:21:19.779Z,21.38
2023-05-18T12:22:18.673Z,21.97
2023-05-18T12:23:18.677Z,22.36
2023-05-18T12:24:18.735Z,22.63
2023-05-18T12:25:18.794Z,22.65
2023-05-18T12:26:18.867Z,23.10
2023-05-18T12:27:18.852Z,23.13
2023-05-18T12:28:18.909Z,23.26
2023-05-18T12:29:18.979Z,23.02
2023-05-18T12:30:18.952Z,22.96
2023-05-18T12:31:19.005Z,23.02
2023-05-18T12:32:18.966Z,22.78
2023-05-18T12:33:18.987Z,22.98
2023-05-18T12:34:18.988Z,22.74
2023-05-18T12:35:18.998Z,22.76
2023-05-18T12:36:19.059Z,23.04
2023-05-18T12:37:19.066Z,23.10
2023-05-18T12:38:27.760Z,23.11
2023-05-18T12:39:19.219Z,23.59
2023-05-18T12:40:19.277Z,24.16
2023-05-18T12:41:19.332Z,24.38
2023-05-18T12:42:19.319Z,24.53
2023-05-18T12:43:19.325Z,24.38
2023-05-18T12:44:19.336Z,23.45
2023-05-18T12:45:19.323Z,23.16
2023-05-18T12:46:19.447Z,23.58
2023-05-18T12:47:22.108Z,24.00
2023-05-18T12:48:19.509Z,24.31
2023-05-18T12:49:20.276Z,23.42
2023-05-18T12:50:19.510Z,23.28
2023-05-18T12:51:19.601Z,23.25
2023-05-18T12:52:19.572Z,23.02
2023-05-18T12:53:19.644Z,23.37
2023-05-18T12:54:20.509Z,23.67
2023-05-18T12:55:19.680Z,23.79
2023-05-18T12:56:19.753Z,24.13
2023-05-18T12:57:19.826Z,23.96
2023-05-18T12:58:20.053Z,24.46
2023-05-18T13:05:03.850Z,23.48
2023-05-18T13:06:03.900Z,23.79
2023-05-18T13:07:03.921Z,23.66
2023-05-18T13:08:03.957Z,23.07
2023-05-18T13:09:03.965Z,23.28
2023-05-18T13:10:04.044Z,24.04
2023-05-18T13:11:12.880Z,24.46
2023-05-18T13:12:07.812Z,24.13
2023-05-18T13:13:04.161Z,23.39
2023-05-18T13:14:04.281Z,23.51
2023-05-18T13:15:04.285Z,24.10
2023-05-18T13:16:04.362Z,23.86
2023-05-18T13:17:04.490Z,23.47
2023-05-18T13:18:04.459Z,23.04
2023-05-18T13:19:04.497Z,22.62
2023-05-18T13:20:04.506Z,22.16
2023-05-18T13:21:04.516Z,22.44
2023-05-18T13:22:04.591Z,22.65
2023-05-18T13:23:04.578Z,22.59
2023-05-18T13:24:04.549Z,23.18
2023-05-18T13:25:04.587Z,23.02
2023-05-18T13:26:04.565Z,23.16
2023-05-18T13:27:04.577Z,23.73
2023-05-18T13:28:06.484Z,24.26
2023-05-18T13:29:04.562Z,24.24
2023-05-18T13:30:04.585Z,23.70
2023-05-18T13:31:04.616Z,22.78
2023-05-18T13:32:04.787Z,21.72
2023-05-18T13:33:04.698Z,22.15
2023-05-18T13:34:04.680Z,22.58
2023-05-18T13:35:04.700Z,23.11
2023-05-18T13:36:04.700Z,22.56
2023-05-18T13:37:04.693Z,22.58
2023-05-18T13:38:04.763Z,22.52
2023-05-18T13:39:16.459Z,22.59
2023-05-18T13:40:04.865Z,23.02
2023-05-18T13:41:04.869Z,23.49
2023-05-18T13:42:04.921Z,23.54
2023-05-18T13:43:04.985Z,23.55
2023-05-18T13:44:05.113Z,23.99
2023-05-18T13:45:05.083Z,23.85
2023-05-18T13:46:05.148Z,22.84
2023-05-18T13:47:05.063Z,23.16
2023-05-18T13:48:06.239Z,23.48
2023-05-18T13:49:05.157Z,23.62
2023-05-18T13:50:05.199Z,23.88
2023-05-18T13:51:05.273Z,23.95
2023-05-18T13:52:05.171Z,24.10
2023-05-18T13:53:05.177Z,24.48
2023-05-18T13:54:05.214Z,24.53
2023-05-18T13:55:05.231Z,24.11
2023-05-18T13:56:05.232Z,23.49
2023-05-18T13:57:05.210Z,23.07
2023-05-18T13:58:05.231Z,23.08
2023-05-18T13:59:05.253Z,22.76
2023-05-18T14:00:05.296Z,22.93
2023-05-18T14:01:05.353Z,23.02
2023-05-18T14:02:05.401Z,23.44
2023-05-18T14:03:05.451Z,23.71
2023-05-18T14:04:05.399Z,24.13
2023-05-18T14:05:05.392Z,23.92
2023-05-18T14:06:05.467Z,23.70
2023-05-18T14:07:05.512Z,23.06
2023-05-18T14:08:05.515Z,23.37
2023-05-18T14:09:05.552Z,23.82
2023-05-18T14:10:05.643Z,23.54
2023-05-18T14:11:05.626Z,22.83
2023-05-18T14:12:05.720Z,22.77
2023-05-18T14:13:05.746Z,22.86
2023-05-18T14:14:05.766Z,23.48
2023-05-18T14:15:05.761Z,23.70
2023-05-18T14:16:05.729Z,23.91
2023-05-18T14:17:05.918Z,24.37
2023-05-18T14:18:05.986Z,23.34
2023-05-18T14:19:05.895Z,23.20
2023-05-18T14:20:05.913Z,23.13
2023-05-18T14:21:05.916Z,23.52
2023-05-18T14:22:05.921Z,23.17
2023-05-18T14:23:07.616Z,22.76
2023-05-18T14:24:06.071Z,22.86
2023-05-18T14:25:06.096Z,23.08
2023-05-18T14:26:06.175Z,22.70
2023-05-18T14:27:06.193Z,22.43
2023-05-18T14:28:06.237Z,22.40
2023-05-18T14:29:06.308Z,22.89
2023-05-18T14:30:06.442Z,23.47
2023-05-18T14:31:06.421Z,23.39
2023-05-18T14:32:06.412Z,23.34
2023-05-18T14:33:06.507Z,22.98
2023-05-18T14:34:06.446Z,22.93
2023-05-18T14:35:06.497Z,23.07
2023-05-18T14:36:06.617Z,23.08
2023-05-18T14:37:06.613Z,23.47
2023-05-18T14:38:06.617Z,22.98
2023-05-18T14:39:06.645Z,23.17
2023-05-18T14:40:06.642Z,22.84
2023-05-18T14:41:06.671Z,23.29
2023-05-18T14:42:06.736Z,22.74
2023-05-18T14:43:06.786Z,22.03
2023-05-18T14:44:06.852Z,22.49
2023-05-18T14:45:06.896Z,22.62
2023-05-18T14:46:08.745Z,22.55
2023-05-18T14:47:06.969Z,22.71
2023-05-18T14:48:06.998Z,23.28
2023-05-18T14:49:06.973Z,23.79
2023-05-18T14:50:07.043Z,23.92
2023-05-18T14:51:07.045Z,23.79
2023-05-18T14:52:07.077Z,22.93
2023-05-18T14:53:07.046Z,22.53
2023-05-18T14:54:07.114Z,22.92
2023-05-18T14:55:07.154Z,23.08
2023-05-18T14:56:07.211Z,22.55
2023-05-18T14:57:07.226Z,22.19
2023-05-18T14:58:07.257Z,22.47
2023-05-18T14:59:07.282Z,22.58
2023-05-18T15:00:07.305Z,23.01
2023-05-18T15:01:07.368Z,23.16
2023-05-18T15:02:07.449Z,22.92
2023-05-18T15:03:07.500Z,23.08
2023-05-18T15:04:07.419Z,23.62
2023-05-18T15:05:07.451Z,24.10
2023-05-18T15:06:07.446Z,24.46
2023-05-18T15:07:07.519Z,23.85
2023-05-18T15:08:07.508Z,23.52
2023-05-18T15:09:07.554Z,23.26
2023-05-18T15:10:07.540Z,22.83
2023-05-18T15:11:07.573Z,22.93
2023-05-18T15:12:07.632Z,22.99
2023-05-18T15:13:07.703Z,23.01
2023-05-18T15:14:07.744Z,23.23
2023-05-18T15:15:07.735Z,23.48
2023-05-18T15:16:07.843Z,23.70
2023-05-18T15:17:07.868Z,23.62
2023-05-18T15:18:07.959Z,23.81
2023-05-18T15:19:07.987Z,24.16
2023-05-18T15:20:07.947Z,24.22
2023-05-18T15:21:08.018Z,23.94
2023-05-18T15:22:08.085Z,22.99
2023-05-18T15:23:08.075Z,22.65
2023-05-18T15:24:08.125Z,22.53
2023-05-18T15:25:08.141Z,22.68
2023-05-18T15:26:09.228Z,22.65
2023-05-18T15:27:08.227Z,22.55
2023-05-18T15:28:08.211Z,22.65
2023-05-18T15:29:08.251Z,23.02
2023-05-18T15:30:08.278Z,23.44
2023-05-18T15:31:08.300Z,23.81
2023-05-18T15:32:08.434Z,23.85
2023-05-18T15:33:08.335Z,23.91
2023-05-18T15:34:08.336Z,23.70
2023-05-18T15:35:08.373Z,23.23
2023-05-18T15:36:08.381Z,22.98
2023-05-18T15:37:08.448Z,23.16
2023-05-18T15:38:08.453Z,23.47
2023-05-18T15:39:08.486Z,23.56
2023-05-18T15:40:08.508Z,24.04
2023-05-18T15:41:08.587Z,23.04
2023-05-18T15:42:08.636Z,22.88
2023-05-18T15:43:08.634Z,22.93
2023-05-18T15:44:08.703Z,23.17
2023-05-18T15:45:08.749Z,23.54
2023-05-18T15:46:08.913Z,23.64
2023-05-18T15:47:08.852Z,23.44
2023-05-18T15:48:09.578Z,22.77
2023-05-18T15:49:08.936Z,21.74
2023-05-18T15:50:08.948Z,21.51
2023-05-18T15:51:08.997Z,21.85
2023-05-18T15:52:09.025Z,22.44
2023-05-18T15:53:09.262Z,22.76
2023-05-18T15:54:09.153Z,23.33
2023-05-18T15:55:09.195Z,22.98
2023-05-18T15:56:09.172Z,22.78
2023-05-18T15:57:09.264Z,22.92
2023-05-18T15:58:09.253Z,23.04
2023-05-18T15:59:09.237Z,23.16
2023-05-18T16:00:09.427Z,23.18
2023-05-18T16:01:09.358Z,23.48
2023-05-18T16:02:09.562Z,23.79
2023-05-18T16:03:09.508Z,23.76
2023-05-18T16:04:09.440Z,23.69
2023-05-18T16:05:09.465Z,23.64
2023-05-18T16:06:09.720Z,23.40
2023-05-18T16:07:09.487Z,23.44
2023-05-18T16:08:09.472Z,23.11
2023-05-18T16:09:09.463Z,23.29
2023-05-18T16:10:09.550Z,23.37
2023-05-18T16:11:09.552Z,22.81
2023-05-18T16:12:09.593Z,22.80
2023-05-18T16:13:09.592Z,22.83
2023-05-18T16:14:09.607Z,22.91
2023-05-18T16:15:09.595Z,23.21
2023-05-18T16:16:09.644Z,23.52
2023-05-18T16:17:09.893Z,23.62
2023-05-18T16:18:09.747Z,22.80
2023-05-18T16:19:09.911Z,22.37
2023-05-18T16:20:09.730Z,22.68
2023-05-18T16:21:10.559Z,22.80
2023-05-18T16:22:09.750Z,23.02
2023-05-18T16:23:09.767Z,22.55
2023-05-18T16:24:09.788Z,22.55
2023-05-18T16:25:09.816Z,22.81
2023-05-18T16:26:09.860Z,22.77
2023-05-18T16:27:09.904Z,22.58
2023-05-18T16:28:09.869Z,22.40
2023-05-18T16:29:09.886Z,22.74
2023-05-18T16:30:09.885Z,22.47
2023-05-18T16:31:09.936Z,22.28
2023-05-18T16:32:09.981Z,22.22
2023-05-18T16:33:10.040Z,22.38
2023-05-18T16:34:10.001Z,22.68
2023-05-18T16:35:10.059Z,22.86
2023-05-18T16:36:10.143Z,22.91
2023-05-18T16:37:10.174Z,23.04
2023-05-18T16:38:10.187Z,22.89
2023-05-18T16:39:10.176Z,23.06
2023-05-18T16:40:10.192Z,23.01
2023-05-18T16:41:10.220Z,22.67
2023-05-18T16:42:10.285Z,22.56
2023-05-18T16:43:10.358Z,22.63
2023-05-18T16:44:14.330Z,22.77
2023-05-18T16:45:10.470Z,22.95
2023-05-18T16:46:10.558Z,22.67
2023-05-18T16:47:10.467Z,22.43
2023-05-18T16:48:10.515Z,21.91
2023-05-18T16:49:10.502Z,21.74
2023-05-18T16:50:10.517Z,21.85
2023-05-18T16:51:10.541Z,22.34
2023-05-18T16:52:10.573Z,22.58
2023-05-18T16:53:10.605Z,22.89
2023-05-18T16:54:10.642Z,22.92
2023-05-18T16:55:10.691Z,23.16
2023-05-18T16:56:10.712Z,22.88
2023-05-18T16:57:10.716Z,22.07
2023-05-18T16:58:10.811Z,21.91
2023-05-18T16:59:10.792Z,22.19
2023-05-18T17:00:10.789Z,22.43
2023-05-18T17:01:23.549Z,22.77
2023-05-18T17:02:10.853Z,22.43
2023-05-18T17:03:10.930Z,21.81
2023-05-18T17:04:11.081Z,21.83
2023-05-18T17:05:10.985Z,21.69
2023-05-18T17:06:10.999Z,22.01
2023-05-18T17:07:11.031Z,21.91
2023-05-18T17:08:11.052Z,22.06
2023-05-18T17:09:11.056Z,22.33
2023-05-18T17:10:11.114Z,22.12
2023-05-18T17:11:11.115Z,21.75
2023-05-18T17:12:11.155Z,21.37
2023-05-18T17:13:11.149Z,20.93
2023-05-18T17:14:11.158Z,21.19
2023-05-18T17:15:11.198Z,21.25
2023-05-18T17:16:11.221Z,21.62
2023-05-18T17:17:11.322Z,21.66
2023-05-18T17:18:11.348Z,21.97
2023-05-18T17:19:11.337Z,21.62
2023-05-18T17:20:11.346Z,21.70
2023-05-18T17:21:11.386Z,21.88
2023-05-18T17:22:11.423Z,22.12
2023-05-18T17:23:11.460Z,22.44
2023-05-18T17:24:11.529Z,22.46
2023-05-18T17:25:11.496Z,22.46
2023-05-18T17:26:11.545Z,21.96
2023-05-18T17:27:11.567Z,22.08
2023-05-18T17:28:11.592Z,22.10
2023-05-18T17:29:11.895Z,21.69
2023-05-18T17:30:11.676Z,21.53
2023-05-18T17:31:11.742Z,21.69
2023-05-18T17:32:11.766Z,22.03
2023-05-18T17:33:11.882Z,21.84
2023-05-18T17:34:11.874Z,21.74
2023-05-18T17:35:14.085Z,21.08
2023-05-18T17:36:11.929Z,20.82
2023-05-18T17:37:11.995Z,20.98
2023-05-18T17:38:12.049Z,21.08
2023-05-18T17:39:12.111Z,21.28
2023-05-18T17:40:12.187Z,21.47
2023-05-18T17:41:12.220Z,20.98
2023-05-18T17:42:12.195Z,20.56
2023-05-18T17:43:12.225Z,20.18
2023-05-18T17:44:12.255Z,19.87
2023-05-18T17:45:12.280Z,20.00
2023-05-18T17:46:12.317Z,20.22
2023-05-18T17:47:12.430Z,20.03
2023-05-18T17:48:12.420Z,20.40
2023-05-18T17:49:12.412Z,20.52
2023-05-18T17:50:12.418Z,20.59
2023-05-18T17:51:12.460Z,20.22
2023-05-18T17:52:12.474Z,20.04
2023-05-18T17:53:12.495Z,20.18
2023-05-18T17:54:12.568Z,20.39
2023-05-18T17:55:12.804Z,19.96
2023-05-18T17:56:12.655Z,19.47
2023-05-18T17:57:12.671Z,19.55
2023-05-18T17:58:12.691Z,19.60
2023-05-18T17:59:12.711Z,19.41
2023-05-18T18:00:12.736Z,19.35
2023-05-18T18:01:12.850Z,19.32
2023-05-18T18:02:12.837Z,19.11
2023-05-18T18:03:12.950Z,18.88
2023-05-18T18:04:13.048Z,18.85
2023-05-18T18:05:12.915Z,18.85
2023-05-18T18:06:12.967Z,18.82
2023-05-18T18:07:13.021Z,19.16
2023-05-18T18:08:13.064Z,19.38
2023-05-18T18:09:13.075Z,19.16
2023-05-18T18:10:13.146Z,19.15
2023-05-18T18:11:13.157Z,18.97
2023-05-18T18:12:13.384Z,18.46
2023-05-18T18:13:13.169Z,18.45
2023-05-18T18:14:13.205Z,18.36
2023-05-18T18:15:13.234Z,18.27
2023-05-18T18:16:13.318Z,18.61
2023-05-18T18:17:13.379Z,18.51
2023-05-18T18:18:13.379Z,18.64
2023-05-18T18:19:13.541Z,18.68
2023-05-18T18:20:13.460Z,18.83
2023-05-18T18:21:13.385Z,19.22
2023-05-18T18:22:13.457Z,19.41
2023-05-18T18:23:13.453Z,19.26
2023-05-18T18:24:13.484Z,18.96
2023-05-18T18:25:13.514Z,18.76
2023-05-18T18:26:13.535Z,18.92
2023-05-18T18:27:13.631Z,19.00
2023-05-18T18:28:13.630Z,19.15
2023-05-18T18:29:13.676Z,19.19
2023-05-18T18:30:13.740Z,19.09
2023-05-18T18:31:13.767Z,19.24
2023-05-18T18:32:13.805Z,19.24
2023-05-18T18:33:13.891Z,19.01
2023-05-18T18:34:13.849Z,19.09
2023-05-18T18:35:13.916Z,19.04
2023-05-18T18:36:13.918Z,18.89
2023-05-18T18:37:13.961Z,18.70
2023-05-18T18:38:14.009Z,18.63
2023-05-18T18:39:14.078Z,18.30
2023-05-18T18:40:14.055Z,18.36
2023-05-18T18:41:14.102Z,18.16
2023-05-18T18:42:15.647Z,17.94
2023-05-18T18:43:14.833Z,17.76
2023-05-18T18:44:14.294Z,17.56
2023-05-18T18:45:14.332Z,17.50
2023-05-18T18:46:14.458Z,17.63
2023-05-18T18:47:14.388Z,17.42
2023-05-18T18:48:14.465Z,17.32
2023-05-18T18:49:14.464Z,17.22
2023-05-18T18:50:14.498Z,17.14
2023-05-18T18:51:14.533Z,17.19
2023-05-18T18:52:14.534Z,17.05
2023-05-18T18:53:14.590Z,17.05
2023-05-18T18:54:14.635Z,17.12
2023-05-18T18:55:14.717Z,17.20
2023-05-18T18:56:14.682Z,17.19
2023-05-18T18:57:14.695Z,17.01
2023-05-18T18:58:14.694Z,17.02
2023-05-18T18:59:14.732Z,16.77
2023-05-18T19:00:14.906Z,16.82
2023-05-18T19:01:14.915Z,16.65
2023-05-18T19:02:14.914Z,16.61
2023-05-18T19:03:14.965Z,16.54
2023-05-18T19:04:14.949Z,16.44
2023-05-18T19:05:15.023Z,16.50
2023-05-18T19:06:14.954Z,16.55
2023-05-18T19:07:14.975Z,16.49
2023-05-18T19:08:14.976Z,16.46
2023-05-18T19:09:15.027Z,16.32
2023-05-18T19:10:15.081Z,16.29
2023-05-18T19:11:15.144Z,16.28
2023-05-18T19:12:15.113Z,16.22
2023-05-18T19:13:15.193Z,16.22
2023-05-18T19:14:15.195Z,16.17
2023-05-18T19:15:15.255Z,16.08
2023-05-18T19:16:15.350Z,16.06
2023-05-18T19:17:15.288Z,15.87
2023-05-18T19:18:15.337Z,15.90
2023-05-18T19:19:15.415Z,15.83
2023-05-18T19:20:15.423Z,15.87
2023-05-18T19:21:15.452Z,15.90
2023-05-18T19:22:15.488Z,15.91
2023-05-18T19:23:15.476Z,15.85
2023-05-18T19:24:15.476Z,15.83
2023-05-18T19:25:15.552Z,15.69
2023-05-18T19:26:15.519Z,15.65
2023-05-18T19:27:15.566Z,15.54
2023-05-18T19:28:15.603Z,15.47
2023-05-18T19:29:15.709Z,15.52
2023-05-18T19:30:15.655Z,15.52
2023-05-18T19:31:15.795Z,15.51
2023-05-18T19:32:15.724Z,15.43
2023-05-18T19:33:15.818Z,15.52
2023-05-18T19:34:15.756Z,15.48
2023-05-18T19:35:17.511Z,15.44
2023-05-18T19:36:15.792Z,15.39
2023-05-18T19:37:15.816Z,15.43
2023-05-18T19:38:15.834Z,15.41
2023-05-18T19:39:15.846Z,15.33
2023-05-18T19:40:15.856Z,15.37
2023-05-18T19:41:15.865Z,15.35
2023-05-18T19:42:15.835Z,15.30
2023-05-18T19:43:15.873Z,15.04
2023-05-18T19:44:15.883Z,14.99
2023-05-18T19:45:15.921Z,15.00
2023-05-18T19:46:15.939Z,14.94
2023-05-18T19:47:15.942Z,14.97
2023-05-18T19:48:16.111Z,14.74
2023-05-18T19:49:15.953Z,14.78
2023-05-18T19:50:15.948Z,14.79
2023-05-18T19:51:15.965Z,14.71
2023-05-18T19:52:16.028Z,14.70
2023-05-18T19:53:16.090Z,14.71
2023-05-18T19:54:16.081Z,14.63
2023-05-18T19:55:16.108Z,14.53
2023-05-18T19:56:16.118Z,14.55
2023-05-18T19:57:16.133Z,14.48
2023-05-18T19:58:16.160Z,14.45
2023-05-18T19:59:16.184Z,14.40
2023-05-18T20:00:16.219Z,14.31
2023-05-18T20:01:16.280Z,14.25
2023-05-18T20:02:16.226Z,14.22